Rock Falls, Illinois
Current Conditions -  °F | °C
As of 9:15 AM on Saturday 25 Oct 2014 (Local Time) from KSQI Reporting Station
Overcast Overcast  
Wind Chill: 59°   Ceiling: 300
Heat Index: 59°   Visibility: 2mi
Dew Point: 54°   Wind: 7mph
Humidity: 82%   Direction: 300°WNW
Pressure: 29.99"   Gusts: NA
Location:  41.78°N, 89.69°W
Report Text: KSQI 251415Z AUTO 30006KT 2SM OVC003 15/12 A2999 RMK AO1
Loading
Personal Weather Stations






























Interactive Weather Map
Tropical Storm Tracking
New forecast layout! Learn more

10-Day Weather Forecast

Advertisements
Track Severe Weather on mobile